Ana Sayfa
METAR-TAF:

METAR-TAF

Havaalanları :

Yap, Mikronezya

Enlem: 09-29N, Boylam: 138-05E, yükseklik: 28 m

Güncel hava durumu gözlemi

Rapor saat 19:52 UTC de 48 dakika önce yapıldı.
Rüzgar değişken yönden 2 kt
Sıcaklık 26°C
Nem 89%
Basınç 1008 hPa
Görüş mesafesi: 19.3 km
1600 ft yükseklikte parçalı bulutlu
13000 ft yükseklikte parçalı bulutlu
30000 ft yükseklikte parçalı çok bulutlu

METAR: PTYA 091952Z VRB02KT 12SM SCT016 SCT130 BKN300 26/24 A2976 RMK SLP079 T02630243

Saat: 06:40 (20:40 UTC)

Tahmin

Rapor saat 17:21 UTC de 3 saat ve 19 dakika önce yapıldı.
Ayın 09'si saat 18 UTC'den ayın 10'si saat 18 UTC'ye kadar geçerli Tahmin
Rüzgar doğu/kuzeydoğudan 6 kt
Görüş mesafesi: 10 km
1600 ft yükseklikte parçalı bulutlu
6000 ft yükseklikte parçalı çok bulutlu
Civarda sağanaklar

TAF: PTYA 091721Z 0918/1018 06006KT P6SM VCSH SCT016 BKN060

4.000'den fazla havaalanı için hava durumu gözlemleri ve tahminleri (METAR ve TAF raporları).

Kullanılabilir istasyonlar harita üzerinde sarı ve kırmızı noktalarla gösterilir.

İstasyonun adını görmek için fareyi noktanın üzerinde gezdirin.

Sonrasında hava gözlem ve tahminlerini görmek için tıklayın.

Haritayı değiştirmek için: yaklaştırmak için siyah artı işaretli yeşil düğmeye ve uzaklaştırmak için de eksi işaretli düğmeye hızla tıklayın; bitişik haritalar için yeşil okları kullanın.


METAR-TAF: